Time;durP1;ratioP1;P1;durP2;ratioP2;P2;SDS_P1;SDS_P2;PMS_P1;PMS_P2;Temp;Humidity;BMP_temperature;BMP_pressure;BME280_temperature;BME280_humidity;BME280_pressure;Samples;Min_cycle;Max_cycle;Signal;HPM_P1;HPM_P2
2024/02/03 00:01:18;;;;;;;4.32;1.80;;;;;;;;;;5051274;28;20044;-82
2024/02/03 00:03:45;;;;;;;4.18;2.53;;;;;;;;;;5052029;28;20095;-82
2024/02/03 00:06:12;;;;;;;5.22;2.50;;;;;;;;;;5068543;28;20048;-80
2024/02/03 00:08:38;;;;;;;2.90;2.17;;;;;;;;;;5052767;28;20049;-82
2024/02/03 00:11:09;;;;;;;3.53;2.17;;;;;;;;;;5052464;28;20158;-82
2024/02/03 00:13:35;;;;;;;3.15;2.10;;;;;;;;;;5053211;28;20052;-82
2024/02/03 00:16:02;;;;;;;4.40;2.65;;;;;;;;;;5054094;28;20053;-83
2024/02/03 00:18:29;;;;;;;2.20;1.80;;;;;;;;;;5054471;28;20049;-83
2024/02/03 00:20:56;;;;;;;3.70;2.20;;;;;;;;;;5054475;28;20060;-82
2024/02/03 00:23:23;;;;;;;3.53;2.25;;;;;;;;;;5056694;28;20067;-81
2024/02/03 00:25:50;;;;;;;3.53;1.58;;;;;;;;;;5083808;28;20049;-81
2024/02/03 00:28:16;;;;;;;2.22;1.77;;;;;;;;;;5064164;28;20102;-81
2024/02/03 00:30:43;;;;;;;3.70;1.80;;;;;;;;;;5041675;28;20053;-81
2024/02/03 00:33:10;;;;;;;3.15;1.88;;;;;;;;;;5058501;28;20416;-81
2024/02/03 00:35:38;;;;;;;4.18;1.90;;;;;;;;;;5074774;28;20083;-81
2024/02/03 00:38:05;;;;;;;3.05;2.08;;;;;;;;;;5072491;28;20081;-82
2024/02/03 00:40:32;;;;;;;3.17;1.80;;;;;;;;;;5057645;28;20049;-82
2024/02/03 00:42:58;;;;;;;3.13;1.60;;;;;;;;;;5074224;28;20049;-83
2024/02/03 00:45:25;;;;;;;2.55;1.50;;;;;;;;;;5057106;28;20049;-82
2024/02/03 00:47:52;;;;;;;2.25;1.73;;;;;;;;;;5074361;28;20092;-82
2024/02/03 00:50:19;;;;;;;2.03;1.60;;;;;;;;;;5058125;28;20052;-82
2024/02/03 00:52:45;;;;;;;2.22;1.60;;;;;;;;;;5058551;28;20057;-82
2024/02/03 00:55:12;;;;;;;2.17;1.85;;;;;;;;;;5074834;28;20080;-81
2024/02/03 00:57:39;;;;;;;2.75;1.63;;;;;;;;;;5058479;28;20056;-83
2024/02/03 01:00:06;;;;;;;2.78;1.67;;;;;;;;;;5051152;28;20057;-82
2024/02/03 01:02:33;;;;;;;1.92;1.35;;;;;;;;;;5072378;28;20053;-80
2024/02/03 01:04:59;;;;;;;2.00;1.50;;;;;;;;;;5070366;28;20371;-82
2024/02/03 01:07:26;;;;;;;2.78;1.63;;;;;;;;;;5035577;28;20495;-81
2024/02/03 01:09:53;;;;;;;3.00;2.00;;;;;;;;;;5069409;28;20053;-82
2024/02/03 01:12:19;;;;;;;1.98;1.60;;;;;;;;;;5053498;28;20061;-82
2024/02/03 01:14:46;;;;;;;3.50;1.90;;;;;;;;;;5069869;28;20418;-81
2024/02/03 01:17:13;;;;;;;3.42;2.20;;;;;;;;;;5071911;28;20106;-83
2024/02/03 01:19:39;;;;;;;5.90;2.90;;;;;;;;;;5071780;28;20088;-82
2024/02/03 01:22:06;;;;;;;3.88;3.13;;;;;;;;;;5057420;28;20391;-81
2024/02/03 01:24:33;;;;;;;6.10;3.28;;;;;;;;;;5075086;28;20080;-81
2024/02/03 01:27:00;;;;;;;6.00;3.63;;;;;;;;;;5076881;28;20392;-81
2024/02/03 01:29:26;;;;;;;8.15;3.42;;;;;;;;;;5060326;28;20049;-81
2024/02/03 01:31:55;;;;;;;6.55;3.30;;;;;;;;;;5043968;28;20053;-81
2024/02/03 01:34:21;;;;;;;6.57;3.63;;;;;;;;;;5077164;28;20064;-83
2024/02/03 01:36:48;;;;;;;7.30;4.13;;;;;;;;;;5063736;28;20053;-82
2024/02/03 01:39:15;;;;;;;6.93;4.07;;;;;;;;;;5061184;28;20136;-80
2024/02/03 01:41:41;;;;;;;5.45;3.30;;;;;;;;;;5077698;28;20057;-80
2024/02/03 01:44:08;;;;;;;5.05;3.47;;;;;;;;;;5049759;28;20049;-81
2024/02/03 01:46:35;;;;;;;4.55;3.20;;;;;;;;;;5066703;28;20080;-82
2024/02/03 01:49:01;;;;;;;4.10;3.17;;;;;;;;;;5067177;28;20514;-81
2024/02/03 01:51:28;;;;;;;4.57;3.28;;;;;;;;;;5049976;28;20049;-81
2024/02/03 01:53:55;;;;;;;6.80;3.10;;;;;;;;;;5066661;28;20065;-81
2024/02/03 01:56:22;;;;;;;7.20;3.33;;;;;;;;;;5063684;28;20054;-81
2024/02/03 01:58:48;;;;;;;6.35;3.17;;;;;;;;;;5077597;28;20391;-81
2024/02/03 02:01:15;;;;;;;7.18;3.47;;;;;;;;;;5081757;28;20057;-81
2024/02/03 02:03:43;;;;;;;6.05;3.22;;;;;;;;;;5082010;28;20055;-81
2024/02/03 02:06:10;;;;;;;4.18;3.00;;;;;;;;;;5049366;28;20057;-82
2024/02/03 02:08:37;;;;;;;5.72;3.30;;;;;;;;;;5065922;28;20076;-81
2024/02/03 02:11:04;;;;;;;5.03;3.03;;;;;;;;;;5067288;28;20122;-81
2024/02/03 02:13:31;;;;;;;3.28;2.50;;;;;;;;;;5067959;28;20071;-81
2024/02/03 02:15:58;;;;;;;4.70;2.67;;;;;;;;;;5068949;28;20055;-81
2024/02/03 02:18:25;;;;;;;7.35;2.80;;;;;;;;;;5080139;28;20049;-81
2024/02/03 02:20:52;;;;;;;4.10;2.50;;;;;;;;;;5065216;28;20270;-81
2024/02/03 02:23:18;;;;;;;3.17;2.50;;;;;;;;;;5082862;28;20079;-82
2024/02/03 02:25:45;;;;;;;3.00;2.38;;;;;;;;;;5073836;28;20140;-81
2024/02/03 02:28:12;;;;;;;3.30;2.30;;;;;;;;;;5064862;28;20040;-80
2024/02/03 02:30:38;;;;;;;3.63;2.60;;;;;;;;;;5065704;28;20049;-82
2024/02/03 02:33:05;;;;;;;3.42;2.30;;;;;;;;;;5065707;28;20056;-82
2024/02/03 02:35:32;;;;;;;3.72;2.20;;;;;;;;;;5069284;28;20084;-82
2024/02/03 02:37:59;;;;;;;3.22;2.45;;;;;;;;;;5066428;28;20060;-82
2024/02/03 02:40:26;;;;;;;4.30;2.53;;;;;;;;;;5085141;28;20087;-82
2024/02/03 02:42:53;;;;;;;4.07;3.10;;;;;;;;;;5067930;28;20053;-83
2024/02/03 02:45:20;;;;;;;4.57;2.92;;;;;;;;;;5064520;28;20052;-83
2024/02/03 02:47:47;;;;;;;5.20;3.80;;;;;;;;;;5068333;28;20049;-84
2024/02/03 02:50:13;;;;;;;5.40;3.03;;;;;;;;;;5073017;28;20060;-83
2024/02/03 02:52:40;;;;;;;5.70;4.03;;;;;;;;;;5074643;28;20065;-81
2024/02/03 02:55:07;;;;;;;6.03;3.42;;;;;;;;;;5058478;28;20081;-81
2024/02/03 02:57:33;;;;;;;4.68;2.85;;;;;;;;;;5072056;28;20494;-81
2024/02/03 03:00:00;;;;;;;8.82;3.50;;;;;;;;;;5071422;28;20198;-82
2024/02/03 03:02:27;;;;;;;4.82;2.78;;;;;;;;;;5047622;28;20048;-83
2024/02/03 03:04:53;;;;;;;4.30;3.25;;;;;;;;;;5047036;28;20081;-83
2024/02/03 03:07:23;;;;;;;4.95;2.95;;;;;;;;;;5047674;28;20049;-85
2024/02/03 03:09:50;;;;;;;5.07;3.13;;;;;;;;;;5040441;28;20102;-82
2024/02/03 03:12:17;;;;;;;3.58;2.70;;;;;;;;;;5055926;28;20057;-84
2024/02/03 03:14:44;;;;;;;4.20;3.15;;;;;;;;;;5078181;28;20091;-82
2024/02/03 03:17:10;;;;;;;4.50;3.10;;;;;;;;;;5065617;28;20084;-82
2024/02/03 03:19:37;;;;;;;4.68;2.80;;;;;;;;;;5077581;28;20053;-82
2024/02/03 03:22:05;;;;;;;4.50;3.15;;;;;;;;;;5074023;28;20045;-81
2024/02/03 03:24:32;;;;;;;6.10;3.30;;;;;;;;;;5054928;28;20131;-81
2024/02/03 03:26:59;;;;;;;3.90;3.15;;;;;;;;;;5067639;28;20053;-80
2024/02/03 03:29:26;;;;;;;4.90;3.10;;;;;;;;;;5050962;28;20057;-80
2024/02/03 03:31:52;;;;;;;4.80;3.47;;;;;;;;;;5063565;28;20551;-80
2024/02/03 03:34:19;;;;;;;5.05;3.20;;;;;;;;;;5035598;28;20053;-81
2024/02/03 03:36:46;;;;;;;6.80;3.53;;;;;;;;;;5064600;28;20107;-80
2024/02/03 03:39:13;;;;;;;5.65;3.15;;;;;;;;;;5068970;28;20403;-80
2024/02/03 03:41:39;;;;;;;4.68;3.25;;;;;;;;;;5068664;28;20056;-80
2024/02/03 03:44:06;;;;;;;5.28;3.40;;;;;;;;;;5052766;28;20049;-81
2024/02/03 03:46:32;;;;;;;3.90;3.30;;;;;;;;;;5068903;28;20084;-81
2024/02/03 03:48:59;;;;;;;5.93;3.63;;;;;;;;;;5064661;28;20052;-81
2024/02/03 03:51:26;;;;;;;6.10;3.78;;;;;;;;;;5067655;28;20131;-81
2024/02/03 03:53:52;;;;;;;5.55;3.22;;;;;;;;;;5035117;28;20083;-80
2024/02/03 03:56:19;;;;;;;5.18;2.80;;;;;;;;;;5069346;28;20422;-81
2024/02/03 03:58:46;;;;;;;5.63;3.42;;;;;;;;;;5069455;28;20092;-81
2024/02/03 04:01:12;;;;;;;5.28;2.92;;;;;;;;;;5052260;28;20091;-82
2024/02/03 04:03:39;;;;;;;5.20;3.42;;;;;;;;;;5052710;28;20442;-81
2024/02/03 04:06:06;;;;;;;4.13;3.28;;;;;;;;;;5052719;28;20096;-81
2024/02/03 04:08:33;;;;;;;4.53;3.20;;;;;;;;;;5069378;28;20053;-80
2024/02/03 04:11:00;;;;;;;4.93;3.47;;;;;;;;;;5062985;28;20075;-80
2024/02/03 04:13:26;;;;;;;4.13;2.88;;;;;;;;;;5050163;28;20081;-81
2024/02/03 04:15:53;;;;;;;6.97;3.30;;;;;;;;;;5051134;28;20084;-82
2024/02/03 04:18:20;;;;;;;4.88;3.22;;;;;;;;;;5051369;28;20110;-82
2024/02/03 04:20:47;;;;;;;3.55;2.78;;;;;;;;;;5053117;28;20049;-80
2024/02/03 04:23:13;;;;;;;3.53;3.22;;;;;;;;;;5052563;28;20514;-80
2024/02/03 04:25:40;;;;;;;4.95;3.42;;;;;;;;;;5090584;28;20040;-82
2024/02/03 04:28:06;;;;;;;5.97;3.40;;;;;;;;;;5092946;28;20040;-83
2024/02/03 04:30:33;;;;;;;4.13;3.38;;;;;;;;;;5061606;28;20068;-81
2024/02/03 04:33:00;;;;;;;4.75;3.25;;;;;;;;;;5054540;28;20049;-81
2024/02/03 04:35:26;;;;;;;4.03;3.20;;;;;;;;;;5063987;28;20139;-81
2024/02/03 04:37:55;;;;;;;5.13;3.00;;;;;;;;;;5045762;28;20053;-81
2024/02/03 04:40:21;;;;;;;5.10;3.50;;;;;;;;;;5050108;28;20056;-81
2024/02/03 04:42:48;;;;;;;5.30;3.40;;;;;;;;;;5069955;28;20056;-82
2024/02/03 04:45:15;;;;;;;4.88;3.72;;;;;;;;;;5037844;28;20052;-81
2024/02/03 04:47:42;;;;;;;4.45;3.40;;;;;;;;;;5070542;28;20045;-83
2024/02/03 04:50:09;;;;;;;4.63;3.30;;;;;;;;;;5049919;28;20056;-81
2024/02/03 04:52:36;;;;;;;4.47;3.63;;;;;;;;;;5071144;28;20049;-81
2024/02/03 04:55:02;;;;;;;5.85;2.63;;;;;;;;;;5051159;28;20080;-83
2024/02/03 04:57:29;;;;;;;5.45;3.45;;;;;;;;;;5040559;28;20053;-83
2024/02/03 04:59:56;;;;;;;5.25;3.88;;;;;;;;;;5041960;28;20107;-82
2024/02/03 05:02:22;;;;;;;5.80;4.15;;;;;;;;;;5074462;28;20049;-82
2024/02/03 05:04:50;;;;;;;7.25;5.18;;;;;;;;;;5074397;28;20048;-81
2024/02/03 05:07:17;;;;;;;9.50;5.00;;;;;;;;;;5072020;28;20045;-82
2024/02/03 05:09:44;;;;;;;8.27;5.15;;;;;;;;;;5041443;28;20577;-80
2024/02/03 05:12:11;;;;;;;6.63;4.28;;;;;;;;;;5073776;28;20053;-81
2024/02/03 05:14:38;;;;;;;6.82;4.00;;;;;;;;;;5042438;28;20060;-81
2024/02/03 05:17:05;;;;;;;4.05;3.47;;;;;;;;;;5088550;28;20053;-81
2024/02/03 05:19:31;;;;;;;5.78;3.33;;;;;;;;;;5053788;28;20549;-81
2024/02/03 05:21:58;;;;;;;5.43;3.08;;;;;;;;;;5068413;28;20502;-80
2024/02/03 05:24:25;;;;;;;5.07;3.47;;;;;;;;;;5085892;28;20052;-81
2024/02/03 05:26:51;;;;;;;4.82;3.05;;;;;;;;;;5081628;28;20056;-81
2024/02/03 05:29:18;;;;;;;6.32;3.20;;;;;;;;;;5063988;28;20053;-81
2024/02/03 05:31:45;;;;;;;9.60;4.13;;;;;;;;;;5084271;28;20555;-81
2024/02/03 05:34:12;;;;;;;8.13;5.57;;;;;;;;;;5084736;28;20112;-83
2024/02/03 05:36:39;;;;;;;12.48;6.95;;;;;;;;;;5040138;28;20135;-82
2024/02/03 05:39:06;;;;;;;10.15;5.60;;;;;;;;;;5072698;28;20061;-82
2024/02/03 05:41:33;;;;;;;8.27;5.53;;;;;;;;;;5073109;28;20564;-81
2024/02/03 05:43:59;;;;;;;7.22;4.60;;;;;;;;;;5071317;28;20105;-81
2024/02/03 05:46:26;;;;;;;8.55;4.63;;;;;;;;;;5055434;28;20088;-81
2024/02/03 05:48:54;;;;;;;6.72;4.55;;;;;;;;;;5073788;28;20444;-80
2024/02/03 05:51:21;;;;;;;31.23;14.80;;;;;;;;;;5058363;28;20052;-81
2024/02/03 05:53:47;;;;;;;13.93;7.05;;;;;;;;;;5074706;28;20132;-81
2024/02/03 05:56:14;;;;;;;6.10;4.93;;;;;;;;;;5074947;28;20082;-80
2024/02/03 05:58:41;;;;;;;8.52;5.90;;;;;;;;;;5058737;28;20201;-81
2024/02/03 06:01:07;;;;;;;11.68;6.93;;;;;;;;;;5057823;28;20075;-81
2024/02/03 06:03:34;;;;;;;11.05;7.22;;;;;;;;;;5076750;28;20044;-81
2024/02/03 06:06:01;;;;;;;9.63;6.55;;;;;;;;;;5074243;28;20056;-82
2024/02/03 06:08:30;;;;;;;8.55;6.85;;;;;;;;;;5055105;28;20059;-83
2024/02/03 06:10:57;;;;;;;10.57;6.88;;;;;;;;;;5055974;28;20100;-83
2024/02/03 06:13:23;;;;;;;12.27;7.57;;;;;;;;;;5072870;28;20090;-82
2024/02/03 06:15:52;;;;;;;9.35;6.40;;;;;;;;;;5073050;28;20053;-83
2024/02/03 06:18:19;;;;;;;11.00;6.85;;;;;;;;;;5059722;28;20120;-83
2024/02/03 06:20:47;;;;;;;9.90;5.88;;;;;;;;;;5050516;28;20049;-82
2024/02/03 06:23:14;;;;;;;14.95;9.50;;;;;;;;;;5071068;28;20053;-84
2024/02/03 06:25:41;;;;;;;11.70;7.47;;;;;;;;;;5059405;28;20469;-83
2024/02/03 06:28:10;;;;;;;8.82;6.10;;;;;;;;;;5079566;28;20079;-84
2024/02/03 06:30:37;;;;;;;20.35;6.93;;;;;;;;;;5073160;28;20049;-84
2024/02/03 06:33:04;;;;;;;7.85;6.05;;;;;;;;;;5067503;28;20052;-83
2024/02/03 06:35:31;;;;;;;8.15;5.80;;;;;;;;;;5056136;28;20113;-84
2024/02/03 06:37:58;;;;;;;9.82;5.50;;;;;;;;;;5067244;28;20077;-84
2024/02/03 06:40:25;;;;;;;9.57;6.53;;;;;;;;;;5066314;28;20049;-83
2024/02/03 06:42:53;;;;;;;12.38;8.35;;;;;;;;;;5048833;28;20049;-82
2024/02/03 06:45:20;;;;;;;9.93;7.07;;;;;;;;;;5078300;28;20056;-83
2024/02/03 06:47:47;;;;;;;9.55;6.50;;;;;;;;;;5050183;28;20128;-83
2024/02/03 06:50:13;;;;;;;11.90;6.38;;;;;;;;;;5073331;28;20049;-82
2024/02/03 06:52:40;;;;;;;11.02;6.53;;;;;;;;;;5073149;28;20065;-82
2024/02/03 06:55:07;;;;;;;10.27;7.03;;;;;;;;;;5056995;28;20099;-81
2024/02/03 06:57:34;;;;;;;10.10;6.95;;;;;;;;;;5054715;28;20046;-80
2024/02/03 07:00:01;;;;;;;10.68;6.88;;;;;;;;;;5073855;28;20525;-77
2024/02/03 07:02:27;;;;;;;10.25;6.35;;;;;;;;;;5035255;28;20422;-78
2024/02/03 07:04:54;;;;;;;9.68;6.82;;;;;;;;;;5053427;28;20075;-78
2024/02/03 07:07:20;;;;;;;12.73;7.72;;;;;;;;;;5063298;28;20096;-80
2024/02/03 07:09:50;;;;;;;14.18;7.40;;;;;;;;;;5036672;28;20062;-79
2024/02/03 07:12:17;;;;;;;10.57;6.97;;;;;;;;;;5068061;28;20121;-79
2024/02/03 07:14:44;;;;;;;8.70;6.80;;;;;;;;;;5078179;28;20056;-78
2024/02/03 07:17:10;;;;;;;10.88;7.95;;;;;;;;;;5091273;28;20067;-78
2024/02/03 07:19:37;;;;;;;13.38;8.13;;;;;;;;;;5074910;28;20081;-77
2024/02/03 07:22:04;;;;;;;15.25;8.52;;;;;;;;;;5049396;28;20044;-78
2024/02/03 07:24:30;;;;;;;11.90;8.30;;;;;;;;;;5049120;28;20619;-77
2024/02/03 07:26:57;;;;;;;12.00;7.55;;;;;;;;;;5028395;28;20057;-78
2024/02/03 07:29:24;;;;;;;10.68;7.72;;;;;;;;;;5030101;28;20514;-77
2024/02/03 07:31:57;;;;;;;9.20;7.07;;;;;;;;;;5049875;28;20640;-77
2024/02/03 07:34:24;;;;;;;12.15;6.85;;;;;;;;;;5047204;28;20140;-78
2024/02/03 07:36:50;;;;;;;9.57;6.82;;;;;;;;;;5050858;28;20056;-78
2024/02/03 07:39:17;;;;;;;8.70;6.53;;;;;;;;;;5065562;28;20092;-78
2024/02/03 07:41:44;;;;;;;10.82;7.13;;;;;;;;;;5040375;28;20053;-78
2024/02/03 07:44:10;;;;;;;8.98;6.82;;;;;;;;;;5064284;28;20049;-77
2024/02/03 07:46:38;;;;;;;8.20;6.10;;;;;;;;;;5040390;28;20080;-78
2024/02/03 07:49:04;;;;;;;9.93;6.85;;;;;;;;;;5050037;28;20195;-78
2024/02/03 07:51:31;;;;;;;8.35;5.57;;;;;;;;;;5053561;28;20059;-82
2024/02/03 07:53:58;;;;;;;25.70;13.50;;;;;;;;;;5056181;28;20076;-81
2024/02/03 07:56:25;;;;;;;11.13;7.53;;;;;;;;;;5052289;28;20076;-80
2024/02/03 07:58:51;;;;;;;9.73;6.35;;;;;;;;;;5041058;28;20064;-81
2024/02/03 08:01:21;;;;;;;9.55;6.93;;;;;;;;;;5063276;28;20098;-79
2024/02/03 08:03:53;;;;;;;10.02;6.70;;;;;;;;;;5034679;28;20045;-78
2024/02/03 08:06:28;;;;;;;9.68;6.10;;;;;;;;;;5087255;28;20035;-78
2024/02/03 08:08:58;;;;;;;13.80;8.18;;;;;;;;;;5059598;28;20072;-78
2024/02/03 08:11:24;;;;;;;12.20;7.07;;;;;;;;;;5068024;28;20069;-77
2024/02/03 08:13:51;;;;;;;9.27;6.82;;;;;;;;;;5068967;28;20045;-77
2024/02/03 08:16:17;;;;;;;9.60;6.80;;;;;;;;;;5079769;28;20446;-77
2024/02/03 08:18:44;;;;;;;7.95;6.05;;;;;;;;;;5065239;28;20055;-78
2024/02/03 08:21:11;;;;;;;7.45;6.10;;;;;;;;;;5066545;28;20079;-78
2024/02/03 08:23:37;;;;;;;7.65;5.53;;;;;;;;;;5046078;28;20053;-77
2024/02/03 08:26:04;;;;;;;8.00;5.50;;;;;;;;;;5067683;28;20045;-78
2024/02/03 08:28:31;;;;;;;8.88;6.50;;;;;;;;;;5083218;28;20061;-78
2024/02/03 08:30:58;;;;;;;8.52;6.43;;;;;;;;;;5057892;28;20045;-78
2024/02/03 08:33:31;;;;;;;11.00;6.32;;;;;;;;;;5065512;28;20136;-78
2024/02/03 08:35:57;;;;;;;8.77;6.28;;;;;;;;;;5053168;28;20610;-79
2024/02/03 08:38:24;;;;;;;8.93;6.50;;;;;;;;;;5046186;28;20057;-79
2024/02/03 08:40:51;;;;;;;8.35;6.45;;;;;;;;;;5068523;28;20517;-79
2024/02/03 08:43:17;;;;;;;9.93;6.80;;;;;;;;;;5072353;28;20052;-77
2024/02/03 08:45:44;;;;;;;11.18;6.70;;;;;;;;;;5072011;28;20076;-79
2024/02/03 08:48:11;;;;;;;8.27;6.05;;;;;;;;;;5067056;28;20051;-79
2024/02/03 08:50:37;;;;;;;9.80;6.35;;;;;;;;;;5063115;28;20052;-78
2024/02/03 08:53:04;;;;;;;7.05;5.00;;;;;;;;;;5084227;28;20052;-78
2024/02/03 08:55:31;;;;;;;7.88;5.63;;;;;;;;;;5061978;28;20079;-79
2024/02/03 08:57:57;;;;;;;18.85;10.85;;;;;;;;;;5059037;28;20056;-79
2024/02/03 09:00:24;;;;;;;7.07;4.85;;;;;;;;;;5062559;28;20055;-78
2024/02/03 09:02:51;;;;;;;5.30;3.75;;;;;;;;;;5080067;28;20064;-79
2024/02/03 09:05:18;;;;;;;13.90;7.40;;;;;;;;;;5078740;28;20056;-79
2024/02/03 09:07:45;;;;;;;4.72;3.47;;;;;;;;;;5071447;28;20060;-79
2024/02/03 09:10:11;;;;;;;4.25;2.97;;;;;;;;;;5074518;28;20064;-79
2024/02/03 09:12:39;;;;;;;5.72;3.17;;;;;;;;;;5072830;28;20053;-78
2024/02/03 09:15:05;;;;;;;4.57;3.42;;;;;;;;;;5071179;28;20044;-79
2024/02/03 09:17:32;;;;;;;5.47;3.53;;;;;;;;;;5065390;28;20045;-79
2024/02/03 09:19:58;;;;;;;4.47;3.13;;;;;;;;;;5066350;28;20076;-78
2024/02/03 09:22:25;;;;;;;5.43;3.40;;;;;;;;;;5054131;28;20049;-78
2024/02/03 09:24:52;;;;;;;6.25;3.85;;;;;;;;;;5064682;28;20045;-78
2024/02/03 09:27:19;;;;;;;5.30;3.38;;;;;;;;;;5039787;28;20758;-78
2024/02/03 09:29:46;;;;;;;4.88;3.53;;;;;;;;;;5045494;28;20048;-78
2024/02/03 09:32:13;;;;;;;3.53;3.15;;;;;;;;;;5036265;28;20056;-78
2024/02/03 09:34:46;;;;;;;7.72;4.28;;;;;;;;;;5052484;28;20107;-79
2024/02/03 09:37:12;;;;;;;5.53;3.20;;;;;;;;;;5045270;28;20095;-78
2024/02/03 09:39:42;;;;;;;5.18;2.78;;;;;;;;;;5034318;28;20063;-79
2024/02/03 09:42:09;;;;;;;4.95;3.03;;;;;;;;;;5050808;28;20146;-79
2024/02/03 09:44:36;;;;;;;3.13;2.53;;;;;;;;;;5050526;28;20586;-78
2024/02/03 09:47:03;;;;;;;4.75;2.50;;;;;;;;;;5044870;28;20083;-78
2024/02/03 09:49:29;;;;;;;3.17;2.88;;;;;;;;;;5048856;28;20076;-79
2024/02/03 09:51:56;;;;;;;3.60;2.70;;;;;;;;;;5061592;28;20061;-79
2024/02/03 09:54:23;;;;;;;2.70;2.00;;;;;;;;;;5042636;28;20059;-79
2024/02/03 09:56:50;;;;;;;2.95;2.10;;;;;;;;;;5028233;28;20525;-78
2024/02/03 09:59:17;;;;;;;3.70;2.08;;;;;;;;;;5039262;28;20049;-79
2024/02/03 10:01:47;;;;;;;3.35;1.75;;;;;;;;;;5049054;28;20053;-79
2024/02/03 10:04:14;;;;;;;2.10;1.88;;;;;;;;;;5051091;28;20049;-78
2024/02/03 10:06:42;;;;;;;1.85;1.60;;;;;;;;;;5041722;28;20438;-79
2024/02/03 10:09:11;;;;;;;4.50;2.42;;;;;;;;;;5043490;28;20491;-79
2024/02/03 10:11:39;;;;;;;3.97;2.45;;;;;;;;;;5051675;28;20063;-79
2024/02/03 10:14:06;;;;;;;2.67;2.30;;;;;;;;;;5031175;28;20469;-79
2024/02/03 10:16:42;;;;;;;3.40;2.33;;;;;;;;;;5049754;28;20122;-79
2024/02/03 10:19:08;;;;;;;2.80;1.70;;;;;;;;;;5063233;28;20434;-79
2024/02/03 10:21:35;;;;;;;3.38;2.40;;;;;;;;;;5051990;28;20056;-81
2024/02/03 10:24:03;;;;;;;8.55;2.63;;;;;;;;;;5050838;28;20056;-78
2024/02/03 10:26:29;;;;;;;3.10;2.10;;;;;;;;;;5043763;28;20411;-81
2024/02/03 10:28:56;;;;;;;3.83;2.67;;;;;;;;;;5025172;28;20131;-79
2024/02/03 10:31:23;;;;;;;4.88;2.60;;;;;;;;;;5046952;28;20045;-81
2024/02/03 10:33:49;;;;;;;3.03;2.40;;;;;;;;;;5026443;28;20057;-80
2024/02/03 10:36:16;;;;;;;3.45;2.50;;;;;;;;;;5059454;28;20052;-80
2024/02/03 10:38:43;;;;;;;2.25;1.98;;;;;;;;;;5061052;28;20502;-79
2024/02/03 10:41:10;;;;;;;3.95;2.63;;;;;;;;;;5034774;28;20053;-79
2024/02/03 10:43:37;;;;;;;4.63;3.17;;;;;;;;;;5040435;28;20128;-79
2024/02/03 10:46:06;;;;;;;3.67;2.92;;;;;;;;;;5036750;28;20050;-78
2024/02/03 10:48:34;;;;;;;3.85;2.92;;;;;;;;;;5031595;28;20048;-78
2024/02/03 10:51:14;;;;;;;3.05;2.53;;;;;;;;;;5065491;28;20495;-79
2024/02/03 10:53:43;;;;;;;4.18;3.08;;;;;;;;;;5058434;28;20065;-78
2024/02/03 10:56:12;;;;;;;3.40;2.42;;;;;;;;;;5050872;28;20048;-79
2024/02/03 10:58:39;;;;;;;5.60;3.08;;;;;;;;;;5049414;28;20068;-79
2024/02/03 11:01:12;;;;;;;3.92;2.72;;;;;;;;;;5060067;28;20045;-79
2024/02/03 11:03:39;;;;;;;4.80;3.20;;;;;;;;;;5038018;28;20049;-79
2024/02/03 11:06:07;;;;;;;4.95;3.65;;;;;;;;;;5061126;28;20049;-79
2024/02/03 11:08:35;;;;;;;4.75;3.90;;;;;;;;;;5044558;28;20053;-81
2024/02/03 11:11:02;;;;;;;3.33;3.00;;;;;;;;;;5062255;28;20072;-81
2024/02/03 11:13:30;;;;;;;4.90;2.95;;;;;;;;;;5062834;28;20049;-81
2024/02/03 11:15:57;;;;;;;2.92;2.50;;;;;;;;;;5070866;28;20049;-80
2024/02/03 11:18:24;;;;;;;3.28;2.45;;;;;;;;;;5055288;28;20412;-77
2024/02/03 11:21:07;;;;;;;2.90;2.53;;;;;;;;;;5057766;28;20426;-77
2024/02/03 11:23:34;;;;;;;1.88;1.67;;;;;;;;;;5047501;28;20044;-76
2024/02/03 11:26:01;;;;;;;2.65;2.40;;;;;;;;;;5045716;28;20056;-77
2024/02/03 11:28:32;;;;;;;2.40;1.83;;;;;;;;;;5046056;28;20457;-77
2024/02/03 11:31:02;;;;;;;2.47;1.85;;;;;;;;;;5050085;28;20058;-80
2024/02/03 11:33:34;;;;;;;5.45;1.48;;;;;;;;;;5055987;28;20510;-78
2024/02/03 11:36:02;;;;;;;2.83;1.55;;;;;;;;;;5049529;28;20056;-78
2024/02/03 11:38:29;;;;;;;2.25;1.30;;;;;;;;;;5046853;28;20080;-78
2024/02/03 11:40:56;;;;;;;2.40;1.02;;;;;;;;;;5047425;28;20075;-78
2024/02/03 11:43:26;;;;;;;1.95;1.00;;;;;;;;;;5044864;28;20107;-78
2024/02/03 11:45:55;;;;;;;1.70;1.00;;;;;;;;;;5055742;28;20122;-79
2024/02/03 11:48:21;;;;;;;1.08;0.90;;;;;;;;;;5049546;28;20049;-78
2024/02/03 11:50:48;;;;;;;0.70;0.63;;;;;;;;;;5040535;28;20513;-78
2024/02/03 11:53:26;;;;;;;2.90;1.00;;;;;;;;;;5046292;28;20085;-78
2024/02/03 11:55:53;;;;;;;0.88;0.73;;;;;;;;;;5046782;28;20548;-78
2024/02/03 11:58:21;;;;;;;1.00;0.60;;;;;;;;;;5036993;28;20491;-78
2024/02/03 12:00:47;;;;;;;2.35;0.98;;;;;;;;;;5044695;28;20514;-78
2024/02/03 12:03:14;;;;;;;4.60;1.48;;;;;;;;;;5044011;28;20530;-79
2024/02/03 12:05:41;;;;;;;0.98;0.40;;;;;;;;;;5051705;28;20061;-80
2024/02/03 12:08:08;;;;;;;1.63;0.80;;;;;;;;;;5031479;28;20048;-79
2024/02/03 12:10:34;;;;;;;2.95;0.80;;;;;;;;;;5053497;28;20064;-80
2024/02/03 12:13:01;;;;;;;0.90;0.50;;;;;;;;;;5034033;28;20048;-79
2024/02/03 12:15:31;;;;;;;1.95;0.60;;;;;;;;;;5055326;28;20136;-80
2024/02/03 12:18:00;;;;;;;1.35;0.50;;;;;;;;;;5067039;28;20068;-80
2024/02/03 12:20:27;;;;;;;1.80;0.20;;;;;;;;;;5051423;28;20053;-80
2024/02/03 12:22:57;;;;;;;0.43;0.40;;;;;;;;;;5066594;28;20045;-79
2024/02/03 12:25:25;;;;;;;1.48;0.77;;;;;;;;;;5053807;28;20047;-80
2024/02/03 12:27:52;;;;;;;0.65;0.45;;;;;;;;;;5060307;28;20494;-79
2024/02/03 12:30:19;;;;;;;0.45;0.40;;;;;;;;;;5060317;28;20108;-79
2024/02/03 12:32:47;;;;;;;0.40;0.40;;;;;;;;;;5045998;28;20060;-80
2024/02/03 12:35:14;;;;;;;0.30;0.30;;;;;;;;;;5043327;28;20052;-80
2024/02/03 12:37:41;;;;;;;0.22;0.22;;;;;;;;;;5061401;28;20116;-80
2024/02/03 12:40:11;;;;;;;2.60;0.35;;;;;;;;;;5038491;28;20049;-80
2024/02/03 12:42:38;;;;;;;0.20;0.20;;;;;;;;;;5039572;28;20084;-81
2024/02/03 12:45:06;;;;;;;0.32;0.32;;;;;;;;;;5055557;28;20045;-80
2024/02/03 12:47:33;;;;;;;1.00;0.43;;;;;;;;;;5059611;28;20050;-80
2024/02/03 12:50:00;;;;;;;0.32;0.30;;;;;;;;;;5052386;28;20112;-80
2024/02/03 12:52:28;;;;;;;0.30;0.30;;;;;;;;;;5060028;28;20052;-80
2024/02/03 12:54:55;;;;;;;1.30;0.20;;;;;;;;;;5044603;28;20093;-80
2024/02/03 12:57:22;;;;;;;0.63;0.63;;;;;;;;;;5054284;28;20049;-80
2024/02/03 12:59:48;;;;;;;0.30;0.25;;;;;;;;;;5073962;28;20488;-80
2024/02/03 13:02:15;;;;;;;0.30;0.20;;;;;;;;;;5059075;28;20045;-80
2024/02/03 13:04:41;;;;;;;0.28;0.28;;;;;;;;;;5059425;28;20061;-80
2024/02/03 13:07:08;;;;;;;0.20;0.20;;;;;;;;;;5059863;28;20045;-80
2024/02/03 13:09:35;;;;;;;0.15;0.10;;;;;;;;;;5061654;28;20041;-80
2024/02/03 13:12:01;;;;;;;0.20;0.20;;;;;;;;;;5038985;28;20170;-80
2024/02/03 13:14:28;;;;;;;0.30;0.30;;;;;;;;;;5056349;28;20083;-80
2024/02/03 13:16:55;;;;;;;0.20;0.20;;;;;;;;;;5068567;28;20454;-79
2024/02/03 13:19:21;;;;;;;0.98;0.28;;;;;;;;;;5056940;28;20064;-79
2024/02/03 13:21:48;;;;;;;0.25;0.25;;;;;;;;;;5077118;28;20049;-80
2024/02/03 13:24:15;;;;;;;0.40;0.30;;;;;;;;;;5062619;28;20132;-79
2024/02/03 13:26:42;;;;;;;0.40;0.38;;;;;;;;;;5069161;28;20084;-79
2024/02/03 13:29:08;;;;;;;0.35;0.22;;;;;;;;;;5068164;28;20067;-79
2024/02/03 13:31:36;;;;;;;0.10;0.10;;;;;;;;;;5061548;28;20045;-80
2024/02/03 13:34:03;;;;;;;0.20;0.20;;;;;;;;;;5063729;28;20049;-79
2024/02/03 13:36:30;;;;;;;0.68;0.30;;;;;;;;;;5062842;28;20055;-80
2024/02/03 13:38:57;;;;;;;0.30;0.20;;;;;;;;;;5044674;28;20053;-79
2024/02/03 13:41:23;;;;;;;0.32;0.30;;;;;;;;;;5043400;28;20088;-79
2024/02/03 13:43:50;;;;;;;0.43;0.22;;;;;;;;;;5076622;28;20053;-80
2024/02/03 13:46:17;;;;;;;0.20;0.20;;;;;;;;;;5060605;28;20077;-79
2024/02/03 13:48:44;;;;;;;0.30;0.28;;;;;;;;;;5058212;28;20047;-79
2024/02/03 13:51:10;;;;;;;0.63;0.20;;;;;;;;;;5039173;28;20045;-80
2024/02/03 13:53:37;;;;;;;0.52;0.30;;;;;;;;;;5060657;28;20048;-79
2024/02/03 13:56:07;;;;;;;0.30;0.13;;;;;;;;;;5063266;28;20392;-79
2024/02/03 13:58:33;;;;;;;0.60;0.30;;;;;;;;;;5043233;28;20502;-79
2024/02/03 14:01:00;;;;;;;0.20;0.20;;;;;;;;;;5059558;28;20088;-79
2024/02/03 14:03:27;;;;;;;0.88;0.57;;;;;;;;;;5057752;28;20128;-80
2024/02/03 14:05:53;;;;;;;1.05;0.38;;;;;;;;;;5060422;28;20076;-80
2024/02/03 14:08:20;;;;;;;0.65;0.40;;;;;;;;;;5059151;28;20057;-80
2024/02/03 14:10:48;;;;;;;1.35;0.50;;;;;;;;;;5060446;28;20060;-79
2024/02/03 14:13:15;;;;;;;1.75;0.70;;;;;;;;;;5062136;28;20580;-79
2024/02/03 14:15:41;;;;;;;0.50;0.38;;;;;;;;;;5052178;28;20061;-79
2024/02/03 14:18:08;;;;;;;0.40;0.40;;;;;;;;;;5050282;28;20057;-78
2024/02/03 14:20:35;;;;;;;0.65;0.40;;;;;;;;;;5050003;28;20087;-78
2024/02/03 14:23:03;;;;;;;0.90;0.35;;;;;;;;;;5070994;28;20116;-80
2024/02/03 14:25:30;;;;;;;0.22;0.20;;;;;;;;;;5036120;28;20041;-80
2024/02/03 14:27:58;;;;;;;1.05;0.30;;;;;;;;;;5056651;28;20110;-79
2024/02/03 14:30:24;;;;;;;0.40;0.30;;;;;;;;;;5062038;28;20076;-80
2024/02/03 14:32:51;;;;;;;0.57;0.40;;;;;;;;;;5056675;28;20045;-79
2024/02/03 14:35:18;;;;;;;0.22;0.17;;;;;;;;;;5057779;28;20072;-80
2024/02/03 14:37:46;;;;;;;0.60;0.30;;;;;;;;;;5045546;28;20064;-79
2024/02/03 14:40:13;;;;;;;0.38;0.32;;;;;;;;;;5042938;28;20049;-79